sensor_id;sensor_type;location;lat;lon;timestamp;P1;durP1;ratioP1;P2;durP2;ratioP2
52972;SDS011;38837;48.916;2.336;2024-01-16T00:00:32;17.65;;;11.07;;
52972;SDS011;38837;48.916;2.336;2024-01-16T00:02:34;18.17;;;11.73;;
52972;SDS011;38837;48.916;2.336;2024-01-16T00:04:36;21.80;;;11.25;;
52972;SDS011;38837;48.916;2.336;2024-01-16T00:06:39;17.13;;;11.77;;
52972;SDS011;38837;48.916;2.336;2024-01-16T00:08:43;23.25;;;12.27;;
52972;SDS011;38837;48.916;2.336;2024-01-16T00:10:45;21.42;;;13.35;;
52972;SDS011;38837;48.916;2.336;2024-01-16T00:12:47;22.23;;;13.25;;
52972;SDS011;38837;48.916;2.336;2024-01-16T00:14:49;20.27;;;13.02;;
52972;SDS011;38837;48.916;2.336;2024-01-16T00:16:51;26.40;;;13.80;;
52972;SDS011;38837;48.916;2.336;2024-01-16T00:18:53;24.58;;;13.32;;
52972;SDS011;38837;48.916;2.336;2024-01-16T00:20:54;22.98;;;12.93;;
52972;SDS011;38837;48.916;2.336;2024-01-16T00:22:56;22.98;;;14.60;;
52972;SDS011;38837;48.916;2.336;2024-01-16T00:24:58;25.98;;;15.27;;
52972;SDS011;38837;48.916;2.336;2024-01-16T00:27:00;24.58;;;15.18;;
52972;SDS011;38837;48.916;2.336;2024-01-16T00:29:02;25.08;;;15.13;;
52972;SDS011;38837;48.916;2.336;2024-01-16T00:31:06;26.50;;;15.85;;
52972;SDS011;38837;48.916;2.336;2024-01-16T00:33:09;23.65;;;15.25;;
52972;SDS011;38837;48.916;2.336;2024-01-16T00:35:13;26.67;;;16.13;;
52972;SDS011;38837;48.916;2.336;2024-01-16T00:37:15;23.95;;;14.98;;
52972;SDS011;38837;48.916;2.336;2024-01-16T00:39:18;29.40;;;16.08;;
52972;SDS011;38837;48.916;2.336;2024-01-16T00:41:20;25.88;;;15.90;;
52972;SDS011;38837;48.916;2.336;2024-01-16T00:43:22;23.73;;;15.73;;
52972;SDS011;38837;48.916;2.336;2024-01-16T00:45:23;30.60;;;16.88;;
52972;SDS011;38837;48.916;2.336;2024-01-16T00:47:25;23.50;;;16.60;;
52972;SDS011;38837;48.916;2.336;2024-01-16T00:49:27;27.73;;;16.55;;
52972;SDS011;38837;48.916;2.336;2024-01-16T00:51:30;30.05;;;16.23;;
52972;SDS011;38837;48.916;2.336;2024-01-16T00:53:32;29.08;;;16.17;;
52972;SDS011;38837;48.916;2.336;2024-01-16T00:55:34;24.85;;;15.43;;
52972;SDS011;38837;48.916;2.336;2024-01-16T00:57:36;32.75;;;17.75;;
52972;SDS011;38837;48.916;2.336;2024-01-16T00:59:38;31.55;;;18.23;;
52972;SDS011;38837;48.916;2.336;2024-01-16T01:01:39;29.35;;;16.48;;
52972;SDS011;38837;48.916;2.336;2024-01-16T01:03:41;28.65;;;16.52;;
52972;SDS011;38837;48.916;2.336;2024-01-16T01:05:43;26.38;;;16.25;;
52972;SDS011;38837;48.916;2.336;2024-01-16T01:07:45;25.90;;;16.33;;
52972;SDS011;38837;48.916;2.336;2024-01-16T01:09:47;30.88;;;16.83;;
52972;SDS011;38837;48.916;2.336;2024-01-16T01:11:49;26.92;;;16.75;;
52972;SDS011;38837;48.916;2.336;2024-01-16T01:13:51;29.85;;;17.67;;
52972;SDS011;38837;48.916;2.336;2024-01-16T01:15:53;29.42;;;16.67;;
52972;SDS011;38837;48.916;2.336;2024-01-16T01:17:55;27.95;;;17.30;;
52972;SDS011;38837;48.916;2.336;2024-01-16T01:19:57;25.20;;;17.10;;
52972;SDS011;38837;48.916;2.336;2024-01-16T01:21:59;27.77;;;17.73;;
52972;SDS011;38837;48.916;2.336;2024-01-16T01:24:01;30.23;;;18.55;;
52972;SDS011;38837;48.916;2.336;2024-01-16T01:26:03;29.10;;;18.42;;
52972;SDS011;38837;48.916;2.336;2024-01-16T01:28:06;25.30;;;17.42;;
52972;SDS011;38837;48.916;2.336;2024-01-16T01:30:08;30.05;;;18.77;;
52972;SDS011;38837;48.916;2.336;2024-01-16T01:32:11;30.48;;;18.98;;
52972;SDS011;38837;48.916;2.336;2024-01-16T01:34:14;29.35;;;18.48;;
52972;SDS011;38837;48.916;2.336;2024-01-16T01:36:16;30.55;;;19.25;;
52972;SDS011;38837;48.916;2.336;2024-01-16T01:38:18;30.30;;;18.45;;
52972;SDS011;38837;48.916;2.336;2024-01-16T01:40:20;30.15;;;19.42;;
52972;SDS011;38837;48.916;2.336;2024-01-16T01:42:22;29.55;;;19.13;;
52972;SDS011;38837;48.916;2.336;2024-01-16T01:44:24;32.63;;;19.50;;
52972;SDS011;38837;48.916;2.336;2024-01-16T01:46:26;33.25;;;19.40;;
52972;SDS011;38837;48.916;2.336;2024-01-16T01:48:29;34.85;;;19.85;;
52972;SDS011;38837;48.916;2.336;2024-01-16T01:50:33;30.52;;;20.63;;
52972;SDS011;38837;48.916;2.336;2024-01-16T01:52:36;28.67;;;19.25;;
52972;SDS011;38837;48.916;2.336;2024-01-16T01:54:42;34.40;;;21.88;;
52972;SDS011;38837;48.916;2.336;2024-01-16T01:56:46;33.20;;;20.73;;
52972;SDS011;38837;48.916;2.336;2024-01-16T01:58:52;31.90;;;21.13;;
52972;SDS011;38837;48.916;2.336;2024-01-16T02:00:57;33.30;;;21.25;;
52972;SDS011;38837;48.916;2.336;2024-01-16T02:03:00;32.30;;;20.40;;
52972;SDS011;38837;48.916;2.336;2024-01-16T02:05:01;33.92;;;19.98;;
52972;SDS011;38837;48.916;2.336;2024-01-16T02:07:05;35.92;;;20.63;;
52972;SDS011;38837;48.916;2.336;2024-01-16T02:09:08;31.80;;;21.42;;
52972;SDS011;38837;48.916;2.336;2024-01-16T02:11:10;32.35;;;21.17;;
52972;SDS011;38837;48.916;2.336;2024-01-16T02:13:12;33.60;;;20.45;;
52972;SDS011;38837;48.916;2.336;2024-01-16T02:15:14;32.63;;;21.13;;
52972;SDS011;38837;48.916;2.336;2024-01-16T02:17:16;33.67;;;21.13;;
52972;SDS011;38837;48.916;2.336;2024-01-16T02:19:17;35.78;;;21.77;;
52972;SDS011;38837;48.916;2.336;2024-01-16T02:21:22;32.85;;;21.77;;
52972;SDS011;38837;48.916;2.336;2024-01-16T02:23:29;32.67;;;20.48;;
52972;SDS011;38837;48.916;2.336;2024-01-16T02:25:32;33.05;;;20.88;;
52972;SDS011;38837;48.916;2.336;2024-01-16T02:27:34;33.03;;;21.05;;
52972;SDS011;38837;48.916;2.336;2024-01-16T02:29:40;34.42;;;21.20;;
52972;SDS011;38837;48.916;2.336;2024-01-16T02:31:46;33.30;;;21.92;;
52972;SDS011;38837;48.916;2.336;2024-01-16T02:33:48;34.28;;;21.88;;
52972;SDS011;38837;48.916;2.336;2024-01-16T02:35:50;33.17;;;22.05;;
52972;SDS011;38837;48.916;2.336;2024-01-16T02:37:52;32.30;;;21.50;;
52972;SDS011;38837;48.916;2.336;2024-01-16T02:39:54;35.03;;;22.45;;
52972;SDS011;38837;48.916;2.336;2024-01-16T02:41:56;32.28;;;20.30;;
52972;SDS011;38837;48.916;2.336;2024-01-16T02:43:57;33.13;;;22.42;;
52972;SDS011;38837;48.916;2.336;2024-01-16T02:45:59;35.60;;;22.45;;
52972;SDS011;38837;48.916;2.336;2024-01-16T02:48:01;36.15;;;23.02;;
52972;SDS011;38837;48.916;2.336;2024-01-16T02:50:05;30.52;;;21.05;;
52972;SDS011;38837;48.916;2.336;2024-01-16T02:52:07;31.08;;;21.20;;
52972;SDS011;38837;48.916;2.336;2024-01-16T02:54:09;35.40;;;22.17;;
52972;SDS011;38837;48.916;2.336;2024-01-16T02:56:11;38.78;;;24.00;;
52972;SDS011;38837;48.916;2.336;2024-01-16T02:58:13;33.45;;;21.60;;
52972;SDS011;38837;48.916;2.336;2024-01-16T03:00:15;37.60;;;22.83;;
52972;SDS011;38837;48.916;2.336;2024-01-16T03:02:17;36.28;;;23.60;;
52972;SDS011;38837;48.916;2.336;2024-01-16T03:04:19;34.65;;;23.30;;
52972;SDS011;38837;48.916;2.336;2024-01-16T03:06:21;36.75;;;23.17;;
52972;SDS011;38837;48.916;2.336;2024-01-16T03:08:25;35.00;;;23.30;;
52972;SDS011;38837;48.916;2.336;2024-01-16T03:10:27;37.15;;;24.35;;
52972;SDS011;38837;48.916;2.336;2024-01-16T03:12:28;35.00;;;24.38;;
52972;SDS011;38837;48.916;2.336;2024-01-16T03:14:30;35.75;;;23.70;;
52972;SDS011;38837;48.916;2.336;2024-01-16T03:16:35;36.25;;;24.33;;
52972;SDS011;38837;48.916;2.336;2024-01-16T03:18:37;35.45;;;22.77;;
52972;SDS011;38837;48.916;2.336;2024-01-16T03:20:40;35.22;;;23.10;;
52972;SDS011;38837;48.916;2.336;2024-01-16T03:22:41;36.05;;;24.15;;
52972;SDS011;38837;48.916;2.336;2024-01-16T03:24:43;38.70;;;22.90;;
52972;SDS011;38837;48.916;2.336;2024-01-16T03:26:45;34.85;;;21.88;;
52972;SDS011;38837;48.916;2.336;2024-01-16T03:28:47;35.30;;;23.20;;
52972;SDS011;38837;48.916;2.336;2024-01-16T03:30:49;35.15;;;22.38;;
52972;SDS011;38837;48.916;2.336;2024-01-16T03:32:51;36.05;;;23.10;;
52972;SDS011;38837;48.916;2.336;2024-01-16T03:34:53;37.58;;;22.83;;
52972;SDS011;38837;48.916;2.336;2024-01-16T03:36:55;37.00;;;23.33;;
52972;SDS011;38837;48.916;2.336;2024-01-16T03:38:57;35.63;;;22.45;;
52972;SDS011;38837;48.916;2.336;2024-01-16T03:40:59;33.97;;;22.15;;
52972;SDS011;38837;48.916;2.336;2024-01-16T03:43:01;33.78;;;21.40;;
52972;SDS011;38837;48.916;2.336;2024-01-16T03:45:03;34.78;;;22.38;;
52972;SDS011;38837;48.916;2.336;2024-01-16T03:47:08;31.75;;;21.20;;
52972;SDS011;38837;48.916;2.336;2024-01-16T03:49:10;35.05;;;21.90;;
52972;SDS011;38837;48.916;2.336;2024-01-16T03:51:12;32.13;;;20.58;;
52972;SDS011;38837;48.916;2.336;2024-01-16T03:53:16;36.50;;;22.08;;
52972;SDS011;38837;48.916;2.336;2024-01-16T03:55:18;33.50;;;21.75;;
52972;SDS011;38837;48.916;2.336;2024-01-16T03:57:20;37.08;;;21.52;;
52972;SDS011;38837;48.916;2.336;2024-01-16T03:59:22;30.77;;;20.08;;
52972;SDS011;38837;48.916;2.336;2024-01-16T04:01:31;32.63;;;20.65;;
52972;SDS011;38837;48.916;2.336;2024-01-16T04:03:34;38.08;;;23.08;;
52972;SDS011;38837;48.916;2.336;2024-01-16T04:05:40;34.83;;;21.85;;
52972;SDS011;38837;48.916;2.336;2024-01-16T04:07:42;33.28;;;22.25;;
52972;SDS011;38837;48.916;2.336;2024-01-16T04:09:44;32.72;;;21.38;;
52972;SDS011;38837;48.916;2.336;2024-01-16T04:11:49;33.63;;;20.70;;
52972;SDS011;38837;48.916;2.336;2024-01-16T04:13:51;35.60;;;21.40;;
52972;SDS011;38837;48.916;2.336;2024-01-16T04:15:53;33.97;;;21.48;;
52972;SDS011;38837;48.916;2.336;2024-01-16T04:17:55;33.30;;;21.30;;
52972;SDS011;38837;48.916;2.336;2024-01-16T04:19:57;33.53;;;21.13;;
52972;SDS011;38837;48.916;2.336;2024-01-16T04:21:59;37.97;;;21.17;;
52972;SDS011;38837;48.916;2.336;2024-01-16T04:24:02;32.58;;;20.40;;
52972;SDS011;38837;48.916;2.336;2024-01-16T04:26:04;36.55;;;20.80;;
52972;SDS011;38837;48.916;2.336;2024-01-16T04:28:06;30.50;;;20.75;;
52972;SDS011;38837;48.916;2.336;2024-01-16T04:30:08;33.50;;;21.35;;
52972;SDS011;38837;48.916;2.336;2024-01-16T04:32:10;31.52;;;20.70;;
52972;SDS011;38837;48.916;2.336;2024-01-16T04:34:12;34.47;;;21.13;;
52972;SDS011;38837;48.916;2.336;2024-01-16T04:36:14;33.67;;;21.38;;
52972;SDS011;38837;48.916;2.336;2024-01-16T04:38:16;35.55;;;21.55;;
52972;SDS011;38837;48.916;2.336;2024-01-16T04:40:18;32.30;;;20.45;;
52972;SDS011;38837;48.916;2.336;2024-01-16T04:42:20;31.30;;;21.15;;
52972;SDS011;38837;48.916;2.336;2024-01-16T04:44:21;40.83;;;20.92;;
52972;SDS011;38837;48.916;2.336;2024-01-16T04:46:23;35.03;;;21.30;;
52972;SDS011;38837;48.916;2.336;2024-01-16T04:48:25;34.80;;;21.30;;
52972;SDS011;38837;48.916;2.336;2024-01-16T04:50:27;35.00;;;20.90;;
52972;SDS011;38837;48.916;2.336;2024-01-16T04:52:33;34.63;;;21.90;;
52972;SDS011;38837;48.916;2.336;2024-01-16T04:54:35;33.60;;;22.30;;
52972;SDS011;38837;48.916;2.336;2024-01-16T04:56:37;33.88;;;21.27;;
52972;SDS011;38837;48.916;2.336;2024-01-16T04:58:39;31.33;;;20.85;;
52972;SDS011;38837;48.916;2.336;2024-01-16T05:00:41;33.80;;;21.08;;
52972;SDS011;38837;48.916;2.336;2024-01-16T05:02:43;36.90;;;21.25;;
52972;SDS011;38837;48.916;2.336;2024-01-16T05:04:45;34.40;;;22.15;;
52972;SDS011;38837;48.916;2.336;2024-01-16T05:06:50;36.83;;;21.33;;
52972;SDS011;38837;48.916;2.336;2024-01-16T05:08:53;34.53;;;21.80;;
52972;SDS011;38837;48.916;2.336;2024-01-16T05:10:55;35.17;;;21.67;;
52972;SDS011;38837;48.916;2.336;2024-01-16T05:12:57;40.03;;;21.63;;
52972;SDS011;38837;48.916;2.336;2024-01-16T05:14:59;36.78;;;21.73;;
52972;SDS011;38837;48.916;2.336;2024-01-16T05:17:00;35.22;;;22.33;;
52972;SDS011;38837;48.916;2.336;2024-01-16T05:19:02;33.72;;;21.45;;
52972;SDS011;38837;48.916;2.336;2024-01-16T05:21:04;30.60;;;21.45;;
52972;SDS011;38837;48.916;2.336;2024-01-16T05:23:08;36.67;;;22.48;;
52972;SDS011;38837;48.916;2.336;2024-01-16T05:25:10;38.63;;;22.05;;
52972;SDS011;38837;48.916;2.336;2024-01-16T05:27:12;35.10;;;22.20;;
52972;SDS011;38837;48.916;2.336;2024-01-16T05:29:14;33.83;;;22.27;;
52972;SDS011;38837;48.916;2.336;2024-01-16T05:31:16;37.78;;;22.00;;
52972;SDS011;38837;48.916;2.336;2024-01-16T05:33:18;32.13;;;21.25;;
52972;SDS011;38837;48.916;2.336;2024-01-16T05:35:20;34.67;;;21.88;;
52972;SDS011;38837;48.916;2.336;2024-01-16T05:37:26;34.42;;;21.42;;
52972;SDS011;38837;48.916;2.336;2024-01-16T05:39:30;35.17;;;21.52;;
52972;SDS011;38837;48.916;2.336;2024-01-16T05:41:33;33.45;;;21.50;;
52972;SDS011;38837;48.916;2.336;2024-01-16T05:43:35;41.50;;;23.27;;
52972;SDS011;38837;48.916;2.336;2024-01-16T05:45:37;37.22;;;22.33;;
52972;SDS011;38837;48.916;2.336;2024-01-16T05:47:39;38.10;;;21.55;;
52972;SDS011;38837;48.916;2.336;2024-01-16T05:49:41;33.58;;;22.10;;
52972;SDS011;38837;48.916;2.336;2024-01-16T05:51:44;35.83;;;22.50;;
52972;SDS011;38837;48.916;2.336;2024-01-16T05:53:46;33.30;;;21.10;;
52972;SDS011;38837;48.916;2.336;2024-01-16T05:55:48;34.05;;;21.55;;
52972;SDS011;38837;48.916;2.336;2024-01-16T05:57:50;32.88;;;21.98;;
52972;SDS011;38837;48.916;2.336;2024-01-16T05:59:52;34.53;;;22.25;;
52972;SDS011;38837;48.916;2.336;2024-01-16T06:01:54;39.10;;;22.08;;
52972;SDS011;38837;48.916;2.336;2024-01-16T06:03:56;34.88;;;22.40;;
52972;SDS011;38837;48.916;2.336;2024-01-16T06:05:58;35.72;;;22.83;;
52972;SDS011;38837;48.916;2.336;2024-01-16T06:08:00;36.20;;;21.15;;
52972;SDS011;38837;48.916;2.336;2024-01-16T06:10:02;40.03;;;22.48;;
52972;SDS011;38837;48.916;2.336;2024-01-16T06:12:06;39.22;;;22.48;;
52972;SDS011;38837;48.916;2.336;2024-01-16T06:14:09;35.85;;;21.40;;
52972;SDS011;38837;48.916;2.336;2024-01-16T06:16:13;39.17;;;23.05;;
52972;SDS011;38837;48.916;2.336;2024-01-16T06:18:15;33.75;;;22.45;;
52972;SDS011;38837;48.916;2.336;2024-01-16T06:20:17;36.10;;;22.65;;
52972;SDS011;38837;48.916;2.336;2024-01-16T06:22:19;43.50;;;22.05;;
52972;SDS011;38837;48.916;2.336;2024-01-16T06:24:21;33.95;;;22.40;;
52972;SDS011;38837;48.916;2.336;2024-01-16T06:26:23;32.35;;;22.40;;
52972;SDS011;38837;48.916;2.336;2024-01-16T06:28:25;37.10;;;23.13;;
52972;SDS011;38837;48.916;2.336;2024-01-16T06:30:27;34.97;;;22.48;;
52972;SDS011;38837;48.916;2.336;2024-01-16T06:32:29;35.00;;;23.02;;
52972;SDS011;38837;48.916;2.336;2024-01-16T06:34:35;36.63;;;22.15;;
52972;SDS011;38837;48.916;2.336;2024-01-16T06:36:42;34.25;;;22.05;;
52972;SDS011;38837;48.916;2.336;2024-01-16T06:38:44;32.17;;;21.58;;
52972;SDS011;38837;48.916;2.336;2024-01-16T06:40:47;34.33;;;21.90;;
52972;SDS011;38837;48.916;2.336;2024-01-16T06:42:49;37.15;;;22.25;;
52972;SDS011;38837;48.916;2.336;2024-01-16T06:44:50;35.92;;;22.23;;
52972;SDS011;38837;48.916;2.336;2024-01-16T06:46:52;34.30;;;21.15;;
52972;SDS011;38837;48.916;2.336;2024-01-16T06:48:54;34.60;;;21.40;;
52972;SDS011;38837;48.916;2.336;2024-01-16T06:50:56;36.95;;;21.90;;
52972;SDS011;38837;48.916;2.336;2024-01-16T06:52:58;40.25;;;22.25;;
52972;SDS011;38837;48.916;2.336;2024-01-16T06:55:00;33.50;;;22.20;;
52972;SDS011;38837;48.916;2.336;2024-01-16T06:57:02;37.72;;;22.42;;
52972;SDS011;38837;48.916;2.336;2024-01-16T06:59:04;31.52;;;21.15;;
52972;SDS011;38837;48.916;2.336;2024-01-16T07:01:09;32.22;;;21.73;;
52972;SDS011;38837;48.916;2.336;2024-01-16T07:03:11;33.97;;;21.42;;
52972;SDS011;38837;48.916;2.336;2024-01-16T07:05:14;34.25;;;21.35;;
52972;SDS011;38837;48.916;2.336;2024-01-16T07:07:16;32.38;;;21.77;;
52972;SDS011;38837;48.916;2.336;2024-01-16T07:09:17;34.47;;;21.83;;
52972;SDS011;38837;48.916;2.336;2024-01-16T07:11:21;33.85;;;21.20;;
52972;SDS011;38837;48.916;2.336;2024-01-16T07:15:27;34.78;;;21.88;;
52972;SDS011;38837;48.916;2.336;2024-01-16T07:17:29;34.25;;;21.80;;
52972;SDS011;38837;48.916;2.336;2024-01-16T07:19:31;37.05;;;22.27;;
52972;SDS011;38837;48.916;2.336;2024-01-16T07:21:33;33.38;;;21.63;;
52972;SDS011;38837;48.916;2.336;2024-01-16T07:23:35;37.08;;;21.45;;
52972;SDS011;38837;48.916;2.336;2024-01-16T07:25:37;35.80;;;22.08;;
52972;SDS011;38837;48.916;2.336;2024-01-16T07:27:39;35.35;;;22.83;;
52972;SDS011;38837;48.916;2.336;2024-01-16T07:29:41;34.08;;;21.67;;
52972;SDS011;38837;48.916;2.336;2024-01-16T07:31:43;34.97;;;21.63;;
52972;SDS011;38837;48.916;2.336;2024-01-16T07:33:45;31.98;;;21.55;;
52972;SDS011;38837;48.916;2.336;2024-01-16T07:35:47;37.78;;;22.70;;
52972;SDS011;38837;48.916;2.336;2024-01-16T07:37:49;39.15;;;22.52;;
52972;SDS011;38837;48.916;2.336;2024-01-16T07:39:51;42.63;;;23.23;;
52972;SDS011;38837;48.916;2.336;2024-01-16T07:41:53;36.80;;;23.17;;
52972;SDS011;38837;48.916;2.336;2024-01-16T07:43:54;37.15;;;22.30;;
52972;SDS011;38837;48.916;2.336;2024-01-16T07:45:56;36.53;;;21.52;;
52972;SDS011;38837;48.916;2.336;2024-01-16T07:47:59;36.65;;;21.77;;
52972;SDS011;38837;48.916;2.336;2024-01-16T07:50:01;32.90;;;21.10;;
52972;SDS011;38837;48.916;2.336;2024-01-16T07:52:07;35.75;;;22.20;;
52972;SDS011;38837;48.916;2.336;2024-01-16T07:54:09;34.72;;;20.73;;
52972;SDS011;38837;48.916;2.336;2024-01-16T07:56:11;31.70;;;20.33;;
52972;SDS011;38837;48.916;2.336;2024-01-16T07:58:13;33.47;;;21.83;;
52972;SDS011;38837;48.916;2.336;2024-01-16T08:00:15;35.25;;;20.77;;
52972;SDS011;38837;48.916;2.336;2024-01-16T08:02:17;31.08;;;20.85;;
52972;SDS011;38837;48.916;2.336;2024-01-16T08:04:22;33.40;;;21.08;;
52972;SDS011;38837;48.916;2.336;2024-01-16T08:06:24;34.00;;;21.55;;
52972;SDS011;38837;48.916;2.336;2024-01-16T08:08:27;33.53;;;21.67;;
52972;SDS011;38837;48.916;2.336;2024-01-16T08:10:29;39.38;;;21.67;;
52972;SDS011;38837;48.916;2.336;2024-01-16T08:12:32;32.55;;;20.98;;
52972;SDS011;38837;48.916;2.336;2024-01-16T08:14:34;31.05;;;20.50;;
52972;SDS011;38837;48.916;2.336;2024-01-16T08:16:36;34.35;;;21.67;;
52972;SDS011;38837;48.916;2.336;2024-01-16T08:18:37;34.78;;;21.48;;
52972;SDS011;38837;48.916;2.336;2024-01-16T08:20:40;36.08;;;21.17;;
52972;SDS011;38837;48.916;2.336;2024-01-16T08:22:43;34.05;;;21.38;;
52972;SDS011;38837;48.916;2.336;2024-01-16T08:24:45;33.95;;;20.70;;
52972;SDS011;38837;48.916;2.336;2024-01-16T08:26:46;35.80;;;22.50;;
52972;SDS011;38837;48.916;2.336;2024-01-16T08:28:49;36.75;;;21.27;;
52972;SDS011;38837;48.916;2.336;2024-01-16T08:30:52;37.15;;;19.98;;
52972;SDS011;38837;48.916;2.336;2024-01-16T08:32:54;40.63;;;21.90;;
52972;SDS011;38837;48.916;2.336;2024-01-16T08:34:56;37.85;;;21.15;;
52972;SDS011;38837;48.916;2.336;2024-01-16T08:36:58;45.20;;;21.65;;
52972;SDS011;38837;48.916;2.336;2024-01-16T08:39:00;43.33;;;21.90;;
52972;SDS011;38837;48.916;2.336;2024-01-16T08:41:02;40.05;;;22.48;;
52972;SDS011;38837;48.916;2.336;2024-01-16T08:43:07;42.22;;;22.75;;
52972;SDS011;38837;48.916;2.336;2024-01-16T08:45:09;42.55;;;21.85;;
52972;SDS011;38837;48.916;2.336;2024-01-16T08:47:11;44.10;;;22.70;;
52972;SDS011;38837;48.916;2.336;2024-01-16T08:49:13;49.25;;;21.60;;
52972;SDS011;38837;48.916;2.336;2024-01-16T08:51:20;44.28;;;22.85;;
52972;SDS011;38837;48.916;2.336;2024-01-16T08:53:22;42.42;;;22.35;;
52972;SDS011;38837;48.916;2.336;2024-01-16T08:55:24;48.45;;;23.40;;
52972;SDS011;38837;48.916;2.336;2024-01-16T08:57:26;40.92;;;23.45;;
52972;SDS011;38837;48.916;2.336;2024-01-16T08:59:31;38.80;;;21.02;;
52972;SDS011;38837;48.916;2.336;2024-01-16T09:01:33;42.95;;;21.92;;
52972;SDS011;38837;48.916;2.336;2024-01-16T09:03:35;39.53;;;21.38;;
52972;SDS011;38837;48.916;2.336;2024-01-16T09:05:37;45.42;;;22.17;;
52972;SDS011;38837;48.916;2.336;2024-01-16T09:07:41;47.67;;;22.53;;
52972;SDS011;38837;48.916;2.336;2024-01-16T09:09:42;40.45;;;21.58;;
52972;SDS011;38837;48.916;2.336;2024-01-16T09:11:44;43.95;;;21.08;;
52972;SDS011;38837;48.916;2.336;2024-01-16T09:13:46;46.92;;;22.05;;
52972;SDS011;38837;48.916;2.336;2024-01-16T09:15:48;42.15;;;22.25;;
52972;SDS011;38837;48.916;2.336;2024-01-16T09:17:50;47.80;;;22.27;;
52972;SDS011;38837;48.916;2.336;2024-01-16T09:19:53;37.25;;;21.08;;
52972;SDS011;38837;48.916;2.336;2024-01-16T09:21:55;38.50;;;21.55;;
52972;SDS011;38837;48.916;2.336;2024-01-16T09:23:57;36.25;;;22.10;;
52972;SDS011;38837;48.916;2.336;2024-01-16T09:25:59;43.35;;;22.23;;
52972;SDS011;38837;48.916;2.336;2024-01-16T09:28:01;41.38;;;22.23;;
52972;SDS011;38837;48.916;2.336;2024-01-16T09:30:04;45.75;;;22.27;;
52972;SDS011;38837;48.916;2.336;2024-01-16T09:32:06;38.65;;;20.73;;
52972;SDS011;38837;48.916;2.336;2024-01-16T09:34:08;43.67;;;22.95;;
52972;SDS011;38837;48.916;2.336;2024-01-16T09:36:10;42.10;;;21.98;;
52972;SDS011;38837;48.916;2.336;2024-01-16T09:38:12;36.13;;;22.40;;
52972;SDS011;38837;48.916;2.336;2024-01-16T09:40:14;46.25;;;22.75;;
52972;SDS011;38837;48.916;2.336;2024-01-16T09:42:16;46.33;;;22.38;;
52972;SDS011;38837;48.916;2.336;2024-01-16T09:44:20;41.95;;;22.13;;
52972;SDS011;38837;48.916;2.336;2024-01-16T09:46:22;44.13;;;21.92;;
52972;SDS011;38837;48.916;2.336;2024-01-16T09:48:27;42.40;;;22.25;;
52972;SDS011;38837;48.916;2.336;2024-01-16T09:50:31;37.60;;;22.23;;
52972;SDS011;38837;48.916;2.336;2024-01-16T09:52:33;50.75;;;22.88;;
52972;SDS011;38837;48.916;2.336;2024-01-16T09:54:35;42.95;;;23.38;;
52972;SDS011;38837;48.916;2.336;2024-01-16T09:56:39;47.25;;;24.25;;
52972;SDS011;38837;48.916;2.336;2024-01-16T09:58:44;39.58;;;21.60;;
52972;SDS011;38837;48.916;2.336;2024-01-16T10:00:49;35.92;;;21.90;;
52972;SDS011;38837;48.916;2.336;2024-01-16T10:02:52;39.90;;;22.55;;
52972;SDS011;38837;48.916;2.336;2024-01-16T10:05:00;37.10;;;22.05;;
52972;SDS011;38837;48.916;2.336;2024-01-16T10:07:02;43.10;;;22.95;;
52972;SDS011;38837;48.916;2.336;2024-01-16T10:09:05;39.33;;;23.02;;
52972;SDS011;38837;48.916;2.336;2024-01-16T10:11:07;37.50;;;24.08;;
52972;SDS011;38837;48.916;2.336;2024-01-16T10:13:10;38.60;;;22.77;;
52972;SDS011;38837;48.916;2.336;2024-01-16T10:15:13;42.65;;;22.48;;
52972;SDS011;38837;48.916;2.336;2024-01-16T10:17:17;46.60;;;24.05;;
52972;SDS011;38837;48.916;2.336;2024-01-16T10:19:19;41.08;;;23.30;;
52972;SDS011;38837;48.916;2.336;2024-01-16T10:21:29;43.55;;;24.50;;
52972;SDS011;38837;48.916;2.336;2024-01-16T10:23:33;42.22;;;24.65;;
52972;SDS011;38837;48.916;2.336;2024-01-16T10:25:35;39.35;;;23.52;;
52972;SDS011;38837;48.916;2.336;2024-01-16T10:27:39;37.92;;;23.23;;
52972;SDS011;38837;48.916;2.336;2024-01-16T10:29:57;37.75;;;23.70;;
52972;SDS011;38837;48.916;2.336;2024-01-16T10:31:59;41.83;;;22.55;;
52972;SDS011;38837;48.916;2.336;2024-01-16T10:34:02;41.72;;;23.15;;
52972;SDS011;38837;48.916;2.336;2024-01-16T10:36:23;44.28;;;23.90;;
52972;SDS011;38837;48.916;2.336;2024-01-16T10:38:26;39.45;;;24.90;;
52972;SDS011;38837;48.916;2.336;2024-01-16T10:40:28;39.67;;;24.00;;
52972;SDS011;38837;48.916;2.336;2024-01-16T10:44:34;35.75;;;22.50;;
52972;SDS011;38837;48.916;2.336;2024-01-16T10:46:38;46.60;;;25.20;;
52972;SDS011;38837;48.916;2.336;2024-01-16T10:48:43;40.70;;;25.17;;
52972;SDS011;38837;48.916;2.336;2024-01-16T10:50:47;42.30;;;24.48;;
52972;SDS011;38837;48.916;2.336;2024-01-16T10:52:53;37.78;;;25.15;;
52972;SDS011;38837;48.916;2.336;2024-01-16T10:54:56;35.90;;;22.83;;
52972;SDS011;38837;48.916;2.336;2024-01-16T10:57:02;41.22;;;24.73;;
52972;SDS011;38837;48.916;2.336;2024-01-16T10:59:06;39.08;;;24.10;;
52972;SDS011;38837;48.916;2.336;2024-01-16T11:01:25;47.95;;;25.35;;
52972;SDS011;38837;48.916;2.336;2024-01-16T11:03:30;48.65;;;25.27;;
52972;SDS011;38837;48.916;2.336;2024-01-16T11:05:38;44.17;;;24.15;;
52972;SDS011;38837;48.916;2.336;2024-01-16T11:07:41;47.78;;;25.70;;
52972;SDS011;38837;48.916;2.336;2024-01-16T11:09:44;43.60;;;24.07;;
52972;SDS011;38837;48.916;2.336;2024-01-16T11:11:47;44.05;;;23.33;;
52972;SDS011;38837;48.916;2.336;2024-01-16T11:13:51;42.63;;;25.00;;
52972;SDS011;38837;48.916;2.336;2024-01-16T11:15:53;40.05;;;24.70;;
52972;SDS011;38837;48.916;2.336;2024-01-16T11:17:57;38.08;;;24.17;;
52972;SDS011;38837;48.916;2.336;2024-01-16T11:22:27;50.15;;;25.10;;
52972;SDS011;38837;48.916;2.336;2024-01-16T11:24:29;39.15;;;24.90;;
52972;SDS011;38837;48.916;2.336;2024-01-16T11:26:32;37.25;;;24.30;;
52972;SDS011;38837;48.916;2.336;2024-01-16T11:28:36;38.35;;;23.13;;
52972;SDS011;38837;48.916;2.336;2024-01-16T11:30:37;42.28;;;24.30;;
52972;SDS011;38837;48.916;2.336;2024-01-16T11:32:40;43.38;;;25.80;;
52972;SDS011;38837;48.916;2.336;2024-01-16T11:36:56;36.45;;;23.38;;
52972;SDS011;38837;48.916;2.336;2024-01-16T11:38:58;46.17;;;24.95;;
52972;SDS011;38837;48.916;2.336;2024-01-16T11:41:00;36.17;;;24.05;;
52972;SDS011;38837;48.916;2.336;2024-01-16T11:47:39;42.75;;;24.17;;
52972;SDS011;38837;48.916;2.336;2024-01-16T11:49:41;39.03;;;23.10;;
52972;SDS011;38837;48.916;2.336;2024-01-16T11:51:43;40.92;;;23.25;;
52972;SDS011;38837;48.916;2.336;2024-01-16T11:53:44;38.30;;;24.98;;
52972;SDS011;38837;48.916;2.336;2024-01-16T11:56:07;38.67;;;24.05;;
52972;SDS011;38837;48.916;2.336;2024-01-16T12:01:12;42.58;;;24.50;;
52972;SDS011;38837;48.916;2.336;2024-01-16T12:03:14;40.95;;;22.80;;
52972;SDS011;38837;48.916;2.336;2024-01-16T12:05:34;42.17;;;24.58;;
52972;SDS011;38837;48.916;2.336;2024-01-16T12:07:43;41.38;;;22.65;;
52972;SDS011;38837;48.916;2.336;2024-01-16T12:09:47;37.80;;;22.95;;
52972;SDS011;38837;48.916;2.336;2024-01-16T12:11:55;45.17;;;23.55;;
52972;SDS011;38837;48.916;2.336;2024-01-16T12:14:03;42.83;;;22.42;;